createdAt,value
2017-08-15T00:01:36.282Z,5.87
2017-08-15T00:04:04.616Z,5.97
2017-08-15T00:06:32.173Z,5.90
2017-08-15T00:08:59.777Z,5.47
2017-08-15T00:11:27.382Z,5.50
2017-08-15T00:13:54.992Z,6.50
2017-08-15T00:16:22.601Z,6.07
2017-08-15T00:18:50.194Z,6.00
2017-08-15T00:21:17.759Z,5.80
2017-08-15T00:23:45.416Z,5.63
2017-08-15T00:26:13.029Z,5.93
2017-08-15T00:28:41.357Z,6.10
2017-08-15T00:31:08.980Z,5.60
2017-08-15T00:33:36.573Z,7.17
2017-08-15T00:36:04.134Z,5.80
2017-08-15T00:38:31.757Z,5.90
2017-08-15T00:40:59.529Z,5.13
2017-08-15T00:43:27.090Z,5.57
2017-08-15T00:45:54.728Z,5.47
2017-08-15T00:48:22.500Z,5.67
2017-08-15T00:50:50.052Z,5.40
2017-08-15T00:53:17.669Z,5.37
2017-08-15T00:55:45.586Z,5.70
2017-08-15T00:58:13.924Z,5.70
2017-08-15T01:00:41.536Z,7.37
2017-08-15T01:03:09.092Z,6.30
2017-08-15T01:05:36.678Z,7.07
2017-08-15T01:08:04.309Z,6.50
2017-08-15T01:10:31.849Z,6.70
2017-08-15T01:12:59.409Z,6.50
2017-08-15T01:15:27.005Z,6.53
2017-08-15T01:17:54.581Z,7.50
2017-08-15T01:20:22.149Z,7.60
2017-08-15T01:22:49.757Z,5.90
2017-08-15T01:25:17.301Z,6.70
2017-08-15T01:27:44.864Z,6.60
2017-08-15T01:30:12.489Z,6.93
2017-08-15T01:32:40.073Z,6.77
2017-08-15T01:35:07.673Z,6.23
2017-08-15T01:37:50.934Z,5.90
2017-08-15T01:40:18.497Z,7.20
2017-08-15T01:42:46.048Z,7.17
2017-08-15T01:45:13.673Z,6.53
2017-08-15T01:47:41.304Z,6.60
2017-08-15T01:50:08.844Z,7.20
2017-08-15T01:52:36.627Z,6.30
2017-08-15T01:55:04.176Z,6.83
2017-08-15T01:57:31.934Z,6.70
2017-08-15T01:59:59.522Z,7.10
2017-08-15T02:02:27.301Z,7.17
2017-08-15T02:04:54.917Z,6.77
2017-08-15T02:07:22.545Z,7.50
2017-08-15T02:09:50.124Z,6.97
2017-08-15T02:12:17.720Z,6.83
2017-08-15T02:14:45.289Z,7.47
2017-08-15T02:17:12.872Z,7.10
2017-08-15T02:19:40.429Z,7.70
2017-08-15T02:22:08.033Z,7.10
2017-08-15T02:24:35.606Z,6.60
2017-08-15T02:27:03.387Z,6.83
2017-08-15T02:29:31.024Z,7.50
2017-08-15T02:31:58.578Z,6.93
2017-08-15T02:34:26.203Z,6.30
2017-08-15T02:36:53.797Z,6.60
2017-08-15T02:39:22.126Z,6.30
2017-08-15T02:41:49.722Z,7.00
2017-08-15T02:44:17.369Z,6.83
2017-08-15T02:46:46.081Z,7.00
2017-08-15T02:49:14.389Z,7.30
2017-08-15T02:51:42.025Z,7.80
2017-08-15T02:54:09.577Z,7.80
2017-08-15T02:56:37.125Z,6.77
2017-08-15T02:59:06.405Z,7.10
2017-08-15T03:01:33.969Z,6.47
2017-08-15T03:04:01.745Z,7.13
2017-08-15T03:06:29.332Z,6.40
2017-08-15T03:08:56.889Z,5.93
2017-08-15T03:11:25.189Z,6.70
2017-08-15T03:13:52.781Z,6.07
2017-08-15T03:16:20.322Z,7.07
2017-08-15T03:18:47.882Z,6.73
2017-08-15T03:21:15.458Z,6.80
2017-08-15T03:23:43.003Z,6.53
2017-08-15T03:26:10.555Z,7.67
2017-08-15T03:28:38.129Z,6.77
2017-08-15T03:31:05.670Z,6.80
2017-08-15T03:33:33.217Z,6.87
2017-08-15T03:36:00.817Z,7.17
2017-08-15T03:38:28.468Z,7.77
2017-08-15T03:40:56.023Z,21.90
2017-08-15T03:43:23.593Z,23.60
2017-08-15T03:45:51.138Z,18.20
2017-08-15T03:48:18.749Z,13.47
2017-08-15T03:50:46.333Z,10.17
2017-08-15T03:53:13.906Z,10.80
2017-08-15T03:55:41.462Z,12.33
2017-08-15T03:58:09.060Z,10.60
2017-08-15T04:00:36.880Z,8.50
2017-08-15T04:03:04.476Z,7.30
2017-08-15T04:05:32.090Z,7.17
2017-08-15T04:08:00.396Z,8.00
2017-08-15T04:10:27.944Z,8.33
2017-08-15T04:12:55.513Z,8.63
2017-08-15T04:15:23.061Z,7.73
2017-08-15T04:17:50.602Z,7.77
2017-08-15T04:20:18.989Z,7.80
2017-08-15T04:22:47.382Z,9.17
2017-08-15T04:25:14.951Z,7.70
2017-08-15T04:27:42.517Z,7.90
2017-08-15T04:30:10.072Z,7.73
2017-08-15T04:32:37.676Z,6.67
2017-08-15T04:35:05.303Z,6.87
2017-08-15T04:37:32.845Z,6.80
2017-08-15T04:40:00.384Z,7.30
2017-08-15T04:42:27.991Z,6.30
2017-08-15T04:44:55.533Z,6.97
2017-08-15T04:47:23.076Z,6.47
2017-08-15T04:49:50.644Z,6.43
2017-08-15T04:52:18.449Z,7.10
2017-08-15T04:54:45.987Z,6.90
2017-08-15T04:57:13.563Z,6.77
2017-08-15T04:59:41.161Z,6.30
2017-08-15T05:02:09.062Z,6.50
2017-08-15T05:04:36.677Z,7.17
2017-08-15T05:07:04.218Z,7.40
2017-08-15T05:09:31.757Z,7.20
2017-08-15T05:11:59.368Z,6.43
2017-08-15T05:14:26.940Z,6.00
2017-08-15T05:16:54.544Z,6.10
2017-08-15T05:19:22.132Z,6.67
2017-08-15T05:21:49.694Z,6.67
2017-08-15T05:24:17.246Z,6.20
2017-08-15T05:26:44.875Z,6.80
2017-08-15T05:29:12.466Z,6.83
2017-08-15T05:31:40.024Z,6.63
2017-08-15T05:34:07.588Z,6.60
2017-08-15T05:36:35.130Z,6.40
2017-08-15T05:39:02.664Z,6.90
2017-08-15T05:41:30.224Z,6.50
2017-08-15T05:43:57.765Z,6.67
2017-08-15T05:46:25.300Z,6.23
2017-08-15T05:48:52.885Z,6.60
2017-08-15T05:51:20.420Z,5.77
2017-08-15T05:53:47.964Z,5.80
2017-08-15T05:56:15.538Z,5.90
2017-08-15T05:58:43.240Z,5.90
2017-08-15T06:01:10.776Z,6.33
2017-08-15T06:03:38.653Z,5.77
2017-08-15T06:06:06.960Z,5.37
2017-08-15T06:08:34.500Z,5.57
2017-08-15T06:11:02.866Z,6.30
2017-08-15T06:13:31.177Z,5.80
2017-08-15T06:15:58.789Z,5.87
2017-08-15T06:18:26.382Z,5.30
2017-08-15T06:20:53.916Z,4.67
2017-08-15T06:23:21.448Z,5.13
2017-08-15T06:25:49.005Z,4.30
2017-08-15T06:28:16.565Z,3.90
2017-08-15T06:30:44.106Z,3.50
2017-08-15T06:33:11.699Z,3.70
2017-08-15T06:35:39.233Z,3.20
2017-08-15T06:38:06.781Z,3.20
2017-08-15T06:40:34.340Z,3.13
2017-08-15T06:43:01.902Z,2.80
2017-08-15T06:45:29.444Z,3.20
2017-08-15T06:47:57.012Z,3.30
2017-08-15T06:50:24.556Z,2.43
2017-08-15T06:52:52.112Z,3.00
2017-08-15T06:55:20.477Z,4.13
2017-08-15T06:57:48.780Z,2.70
2017-08-15T07:00:16.312Z,2.90
2017-08-15T07:02:43.881Z,2.53
2017-08-15T07:05:12.688Z,2.27
2017-08-15T07:07:40.266Z,2.60
2017-08-15T07:10:07.917Z,2.43
2017-08-15T07:12:35.466Z,2.37
2017-08-15T07:15:03.000Z,2.73
2017-08-15T07:17:30.588Z,1.93
2017-08-15T07:19:58.129Z,3.00
2017-08-15T07:22:26.437Z,2.30
2017-08-15T07:24:54.096Z,2.30
2017-08-15T07:27:21.632Z,2.10
2017-08-15T07:29:49.319Z,2.10
2017-08-15T07:32:16.888Z,2.13
2017-08-15T07:34:44.429Z,2.30
2017-08-15T07:37:11.965Z,2.30
2017-08-15T07:39:39.581Z,2.10
2017-08-15T07:42:07.152Z,1.90
2017-08-15T07:44:34.691Z,2.00
2017-08-15T07:47:02.261Z,1.63
2017-08-15T07:49:29.806Z,1.90
2017-08-15T07:51:57.345Z,2.00
2017-08-15T07:54:24.904Z,1.90
2017-08-15T07:56:52.475Z,2.30
2017-08-15T07:59:20.012Z,1.90
2017-08-15T08:01:47.637Z,2.07
2017-08-15T08:04:15.305Z,2.13
2017-08-15T08:06:43.222Z,1.70
2017-08-15T08:09:11.093Z,1.90
2017-08-15T08:11:38.642Z,1.70
2017-08-15T08:14:06.197Z,1.50
2017-08-15T08:16:34.529Z,1.50
2017-08-15T08:19:02.117Z,1.70
2017-08-15T08:21:29.656Z,1.60
2017-08-15T08:23:57.245Z,1.80
2017-08-15T08:26:24.785Z,1.53
2017-08-15T08:28:52.361Z,1.20
2017-08-15T08:31:19.986Z,1.40
2017-08-15T08:33:47.517Z,1.60
2017-08-15T08:36:15.052Z,1.30
2017-08-15T08:38:42.629Z,1.40
2017-08-15T08:41:10.272Z,1.47
2017-08-15T08:43:37.813Z,1.60
2017-08-15T08:46:05.409Z,1.50
2017-08-15T08:48:32.949Z,1.70
2017-08-15T08:51:00.501Z,1.30
2017-08-15T08:53:28.840Z,1.27
2017-08-15T08:55:56.376Z,1.30
2017-08-15T08:58:23.969Z,1.37
2017-08-15T09:00:51.537Z,1.23
2017-08-15T09:03:21.995Z,1.50
2017-08-15T09:05:49.545Z,1.23
2017-08-15T09:08:17.413Z,1.20
2017-08-15T09:10:45.007Z,1.43
2017-08-15T09:13:12.729Z,1.40
2017-08-15T09:15:40.292Z,1.60
2017-08-15T09:18:07.829Z,1.40
2017-08-15T09:20:35.480Z,1.40
2017-08-15T09:23:03.078Z,1.30
2017-08-15T09:25:30.621Z,1.53
2017-08-15T09:27:58.160Z,1.60
2017-08-15T09:30:25.744Z,1.50
2017-08-15T09:32:53.294Z,1.20
2017-08-15T09:35:20.836Z,1.30
2017-08-15T09:37:48.437Z,1.50
2017-08-15T09:40:16.049Z,1.50
2017-08-15T09:42:43.593Z,1.30
2017-08-15T09:45:11.153Z,1.50
2017-08-15T09:47:38.698Z,1.20
2017-08-15T09:50:06.242Z,1.80
2017-08-15T09:52:34.620Z,1.20
2017-08-15T09:55:02.932Z,1.20
2017-08-15T09:57:30.537Z,1.30
2017-08-15T09:59:58.114Z,1.47
2017-08-15T10:02:25.653Z,1.23
2017-08-15T10:04:53.273Z,1.20
2017-08-15T10:07:20.872Z,1.30
2017-08-15T10:09:48.861Z,1.50
2017-08-15T10:12:16.402Z,1.80
2017-08-15T10:14:43.997Z,1.60
2017-08-15T10:17:11.550Z,1.40
2017-08-15T10:19:39.088Z,2.00
2017-08-15T10:22:06.644Z,1.80
2017-08-15T10:24:34.181Z,1.83
2017-08-15T10:27:01.713Z,2.07
2017-08-15T10:29:29.285Z,1.97
2017-08-15T10:31:56.825Z,2.20
2017-08-15T10:34:24.369Z,2.47
2017-08-15T10:36:52.108Z,2.80
2017-08-15T10:39:19.649Z,2.57
2017-08-15T10:41:47.208Z,2.67
2017-08-15T10:44:14.903Z,3.27
2017-08-15T10:46:42.465Z,2.70
2017-08-15T10:49:18.857Z,2.97
2017-08-15T10:51:46.393Z,3.20
2017-08-15T10:54:13.937Z,3.53
2017-08-15T10:56:41.553Z,2.70
2017-08-15T10:59:09.101Z,2.90
2017-08-15T11:01:36.640Z,2.90
2017-08-15T11:04:05.061Z,2.47
2017-08-15T11:06:32.600Z,2.77
2017-08-15T11:09:01.939Z,2.60
2017-08-15T11:11:29.507Z,2.60
2017-08-15T11:13:57.078Z,3.00
2017-08-15T11:16:24.628Z,2.90
2017-08-15T11:18:52.514Z,3.20
2017-08-15T11:21:20.052Z,3.30
2017-08-15T11:23:47.584Z,2.90
2017-08-15T11:26:15.158Z,3.23
2017-08-15T11:28:42.714Z,3.00
2017-08-15T11:31:10.257Z,2.57
2017-08-15T11:33:37.861Z,3.20
2017-08-15T11:36:05.401Z,3.10
2017-08-15T11:38:32.989Z,3.40
2017-08-15T11:41:00.580Z,3.17
2017-08-15T11:43:28.880Z,3.23
2017-08-15T11:45:56.605Z,2.90
2017-08-15T11:48:24.193Z,3.40
2017-08-15T11:50:52.497Z,2.77
2017-08-15T11:53:20.040Z,2.80
2017-08-15T11:55:47.605Z,3.00
2017-08-15T11:58:15.145Z,3.07
2017-08-15T12:00:42.696Z,2.90
2017-08-15T12:03:11.064Z,2.83
2017-08-15T12:05:38.605Z,3.37
2017-08-15T12:08:06.145Z,2.90
2017-08-15T12:10:33.712Z,3.40
2017-08-15T12:13:01.283Z,3.53
2017-08-15T12:15:28.837Z,3.10
2017-08-15T12:17:56.401Z,2.73
2017-08-15T12:20:23.936Z,2.63
2017-08-15T12:22:51.477Z,2.97
2017-08-15T12:25:19.065Z,2.77
2017-08-15T12:27:46.596Z,2.80
2017-08-15T12:30:14.137Z,2.93
2017-08-15T12:32:41.712Z,2.40
2017-08-15T12:35:09.257Z,2.80
2017-08-15T12:37:37.556Z,2.60
2017-08-15T12:40:05.125Z,2.70
2017-08-15T12:42:32.661Z,3.30
2017-08-15T12:45:00.205Z,2.50
2017-08-15T12:47:27.797Z,3.40
2017-08-15T12:49:55.470Z,3.00
2017-08-15T12:52:23.013Z,3.10
2017-08-15T12:54:50.604Z,2.63
2017-08-15T12:57:18.164Z,2.93
2017-08-15T12:59:45.700Z,2.80
2017-08-15T13:02:13.269Z,2.60
2017-08-15T13:04:40.808Z,3.20
2017-08-15T13:07:08.353Z,2.73
2017-08-15T13:09:36.712Z,2.97
2017-08-15T13:12:04.249Z,3.10
2017-08-15T13:14:31.960Z,3.33
2017-08-15T13:17:00.292Z,3.33
2017-08-15T13:19:27.829Z,3.30
2017-08-15T13:21:55.365Z,3.20
2017-08-15T13:24:22.924Z,3.70
2017-08-15T13:26:50.469Z,3.17
2017-08-15T13:29:18.778Z,2.70
2017-08-15T13:31:46.457Z,3.10
2017-08-15T13:34:14.025Z,3.50
2017-08-15T13:36:41.569Z,2.90
2017-08-15T13:39:09.134Z,2.97
2017-08-15T13:41:36.690Z,3.23
2017-08-15T13:44:04.238Z,3.10
2017-08-15T13:46:31.833Z,2.97
2017-08-15T13:48:59.381Z,3.27
2017-08-15T13:51:26.935Z,2.80
2017-08-15T13:53:54.548Z,2.60
2017-08-15T13:56:22.076Z,2.77
2017-08-15T13:58:49.617Z,3.00
2017-08-15T14:01:17.213Z,3.00
2017-08-15T14:03:44.752Z,3.30
2017-08-15T14:06:12.322Z,3.37
2017-08-15T14:08:39.881Z,2.70
2017-08-15T14:11:07.420Z,3.53
2017-08-15T14:13:34.957Z,3.00
2017-08-15T14:16:03.070Z,2.97
2017-08-15T14:18:30.607Z,3.13
2017-08-15T14:20:58.158Z,2.77
2017-08-15T14:23:25.948Z,3.30
2017-08-15T14:25:53.485Z,3.33
2017-08-15T14:28:21.024Z,3.80
2017-08-15T14:30:48.584Z,3.40
2017-08-15T14:33:16.146Z,3.40
2017-08-15T14:35:43.982Z,3.43
2017-08-15T14:38:11.568Z,3.30
2017-08-15T14:40:39.112Z,3.20
2017-08-15T14:43:07.464Z,3.53
2017-08-15T14:45:35.033Z,3.10
2017-08-15T14:48:02.594Z,3.10
2017-08-15T14:50:30.165Z,3.30
2017-08-15T14:52:58.505Z,3.37
2017-08-15T14:55:26.054Z,3.60
2017-08-15T14:57:53.597Z,3.70
2017-08-15T15:00:21.201Z,3.50
2017-08-15T15:02:48.743Z,3.50
2017-08-15T15:05:16.276Z,3.37
2017-08-15T15:07:43.861Z,3.60
2017-08-15T15:10:11.394Z,3.17
2017-08-15T15:12:38.933Z,3.13
2017-08-15T15:15:06.504Z,3.43
2017-08-15T15:17:34.484Z,3.40
2017-08-15T15:20:02.077Z,3.20
2017-08-15T15:22:29.677Z,3.17
2017-08-15T15:24:57.221Z,3.10
2017-08-15T15:27:24.761Z,2.97
2017-08-15T15:29:52.357Z,2.93
2017-08-15T15:32:19.901Z,3.40
2017-08-15T15:34:47.441Z,3.33
2017-08-15T15:37:15.000Z,3.60
2017-08-15T15:39:42.533Z,3.10
2017-08-15T15:42:10.068Z,3.00
2017-08-15T15:44:37.657Z,2.90
2017-08-15T15:47:05.201Z,3.20
2017-08-15T15:49:32.737Z,3.87
2017-08-15T15:52:00.304Z,3.10
2017-08-15T15:54:28.605Z,3.03
2017-08-15T15:56:56.142Z,3.00
2017-08-15T15:59:23.717Z,3.27
2017-08-15T16:01:51.256Z,3.03
2017-08-15T16:04:18.789Z,3.10
2017-08-15T16:06:46.664Z,3.10
2017-08-15T16:09:14.336Z,4.60
2017-08-15T16:11:42.645Z,3.20
2017-08-15T16:14:10.261Z,3.43
2017-08-15T16:16:37.801Z,3.47
2017-08-15T16:19:05.924Z,3.80
2017-08-15T16:21:33.490Z,3.93
2017-08-15T16:24:01.044Z,4.00
2017-08-15T16:26:28.580Z,3.37
2017-08-15T16:28:56.340Z,4.20
2017-08-15T16:31:23.936Z,4.43
2017-08-15T16:33:51.481Z,3.97
2017-08-15T16:36:19.050Z,3.23
2017-08-15T16:38:46.588Z,4.00
2017-08-15T16:41:14.120Z,3.63
2017-08-15T16:43:41.680Z,3.43
2017-08-15T16:46:09.220Z,3.63
2017-08-15T16:48:36.760Z,4.20
2017-08-15T16:51:04.361Z,3.87
2017-08-15T16:53:31.900Z,3.77
2017-08-15T16:55:59.440Z,3.60
2017-08-15T16:58:27.012Z,3.87
2017-08-15T17:00:54.544Z,4.27
2017-08-15T17:03:22.093Z,3.50
2017-08-15T17:05:50.424Z,3.67
2017-08-15T17:08:17.974Z,3.30
2017-08-15T17:10:45.517Z,3.90
2017-08-15T17:13:13.112Z,4.30
2017-08-15T17:15:40.654Z,3.57
2017-08-15T17:18:08.197Z,3.73
2017-08-15T17:20:36.412Z,3.97
2017-08-15T17:23:03.953Z,3.83
2017-08-15T17:25:31.524Z,3.90
2017-08-15T17:27:59.093Z,4.27
2017-08-15T17:30:26.626Z,4.57
2017-08-15T17:32:54.161Z,4.30
2017-08-15T17:35:21.803Z,3.90
2017-08-15T17:37:49.376Z,4.03
2017-08-15T17:40:16.911Z,4.23
2017-08-15T17:42:44.488Z,4.50
2017-08-15T17:45:12.829Z,4.67
2017-08-15T17:47:40.369Z,4.10
2017-08-15T17:50:07.946Z,4.53
2017-08-15T17:52:35.486Z,4.50
2017-08-15T17:55:03.025Z,4.63
2017-08-15T17:57:30.617Z,5.00
2017-08-15T17:59:59.053Z,4.93
2017-08-15T18:02:26.599Z,4.47
2017-08-15T18:04:54.948Z,4.50
2017-08-15T18:07:22.489Z,4.53
2017-08-15T18:09:50.029Z,4.40
2017-08-15T18:12:17.612Z,4.73
2017-08-15T18:14:45.174Z,5.20
2017-08-15T18:17:12.741Z,4.60
2017-08-15T18:19:40.359Z,4.60
2017-08-15T18:22:08.241Z,4.80
2017-08-15T18:24:35.781Z,4.87
2017-08-15T18:27:03.560Z,5.00
2017-08-15T18:29:31.109Z,4.73
2017-08-15T18:31:58.664Z,5.87
2017-08-15T18:34:26.224Z,5.27
2017-08-15T18:36:53.760Z,5.00
2017-08-15T18:39:21.309Z,5.10
2017-08-15T18:41:48.905Z,5.07
2017-08-15T18:44:16.446Z,5.67
2017-08-15T18:46:44.499Z,4.80
2017-08-15T18:49:12.062Z,5.43
2017-08-15T18:51:39.597Z,5.40
2017-08-15T18:54:07.133Z,5.10
2017-08-15T18:56:34.696Z,5.10
2017-08-15T18:59:02.238Z,4.80
2017-08-15T19:01:29.780Z,5.10
2017-08-15T19:03:57.388Z,5.87
2017-08-15T19:06:24.933Z,5.10
2017-08-15T19:08:52.477Z,5.13
2017-08-15T19:11:20.121Z,5.30
2017-08-15T19:13:48.501Z,5.37
2017-08-15T19:16:16.041Z,5.80
2017-08-15T19:18:43.605Z,5.07
2017-08-15T19:21:11.136Z,5.27
2017-08-15T19:23:39.126Z,6.07
2017-08-15T19:26:06.729Z,5.27
2017-08-15T19:28:34.288Z,5.93
2017-08-15T19:31:01.833Z,5.53
2017-08-15T19:33:30.216Z,5.80
2017-08-15T19:35:58.524Z,6.43
2017-08-15T19:38:26.064Z,5.53
2017-08-15T19:40:54.398Z,5.47
2017-08-15T19:43:21.936Z,5.77
2017-08-15T19:45:49.477Z,5.90
2017-08-15T19:48:17.073Z,6.67
2017-08-15T19:50:44.610Z,5.90
2017-08-15T19:53:12.171Z,5.70
2017-08-15T19:55:39.741Z,6.30
2017-08-15T19:58:07.290Z,6.63
2017-08-15T20:00:34.828Z,7.13
2017-08-15T20:03:02.417Z,6.03
2017-08-15T20:05:29.961Z,6.93
2017-08-15T20:07:57.501Z,6.27
2017-08-15T20:10:25.266Z,6.67
2017-08-15T20:12:52.818Z,6.60
2017-08-15T20:15:20.365Z,6.30
2017-08-15T20:17:48.713Z,6.20
2017-08-15T20:20:16.261Z,6.57
2017-08-15T20:22:43.816Z,6.73
2017-08-15T20:25:11.989Z,6.80
2017-08-15T20:27:39.529Z,6.37
2017-08-15T20:30:07.073Z,7.30
2017-08-15T20:32:38.668Z,6.80
2017-08-15T20:35:06.181Z,6.97
2017-08-15T20:37:34.461Z,7.40
2017-08-15T20:40:02.037Z,6.90
2017-08-15T20:42:29.549Z,6.87
2017-08-15T20:44:57.057Z,6.80
2017-08-15T20:47:24.645Z,7.03
2017-08-15T20:49:52.192Z,6.30
2017-08-15T20:52:19.729Z,6.93
2017-08-15T20:54:47.414Z,7.23
2017-08-15T20:57:14.950Z,6.50
2017-08-15T20:59:42.561Z,7.00
2017-08-15T21:02:10.129Z,6.70
2017-08-15T21:04:37.665Z,6.40
2017-08-15T21:07:05.216Z,7.17
2017-08-15T21:09:32.785Z,7.23
2017-08-15T21:12:00.324Z,6.37
2017-08-15T21:14:27.865Z,6.63
2017-08-15T21:16:55.504Z,6.83
2017-08-15T21:19:23.074Z,7.50
2017-08-15T21:21:50.617Z,6.40
2017-08-15T21:24:18.197Z,6.80
2017-08-15T21:26:46.064Z,7.17
2017-08-15T21:29:13.597Z,8.40
2017-08-15T21:31:41.153Z,7.90
2017-08-15T21:34:08.672Z,7.00
2017-08-15T21:36:36.221Z,7.67
2017-08-15T21:39:03.799Z,7.10
2017-08-15T21:41:31.331Z,7.97
2017-08-15T21:43:58.849Z,6.90
2017-08-15T21:46:26.424Z,7.00
2017-08-15T21:48:53.945Z,7.80
2017-08-15T21:51:21.473Z,7.67
2017-08-15T21:53:49.472Z,8.10
2017-08-15T21:56:17.012Z,6.50
2017-08-15T21:58:44.556Z,7.60
2017-08-15T22:01:17.907Z,7.50
2017-08-15T22:03:45.450Z,8.17
2017-08-15T22:06:12.996Z,7.00
2017-08-15T22:08:40.562Z,7.40
2017-08-15T22:11:08.096Z,8.80
2017-08-15T22:13:36.436Z,7.67
2017-08-15T22:16:03.988Z,7.70
2017-08-15T22:18:31.528Z,8.40
2017-08-15T22:20:59.097Z,7.93
2017-08-15T22:23:26.689Z,7.50
2017-08-15T22:25:54.229Z,8.10
2017-08-15T22:28:21.768Z,7.53
2017-08-15T22:30:49.336Z,7.43
2017-08-15T22:33:16.869Z,8.10
2017-08-15T22:35:44.408Z,7.77
2017-08-15T22:38:11.980Z,7.43
2017-08-15T22:40:39.529Z,7.47
2017-08-15T22:43:07.069Z,8.80
2017-08-15T22:45:34.665Z,8.90
2017-08-15T22:48:02.204Z,8.80
2017-08-15T22:50:29.748Z,7.60
2017-08-15T22:52:57.363Z,15.40
2017-08-15T22:55:24.906Z,15.40
2017-08-15T22:57:52.510Z,12.03
2017-08-15T23:00:20.091Z,8.97
2017-08-15T23:02:47.640Z,10.70
2017-08-15T23:05:15.194Z,8.30
2017-08-15T23:07:42.787Z,8.83
2017-08-15T23:10:10.328Z,9.50
2017-08-15T23:12:37.869Z,9.63
2017-08-15T23:15:05.436Z,9.47
2017-08-15T23:17:32.977Z,9.57
2017-08-15T23:20:00.520Z,8.70
2017-08-15T23:22:28.110Z,9.80
2017-08-15T23:24:55.656Z,8.43
2017-08-15T23:27:23.197Z,9.63
2017-08-15T23:29:50.820Z,9.10
2017-08-15T23:32:18.357Z,9.90
2017-08-15T23:34:45.902Z,10.37
2017-08-15T23:37:13.477Z,12.13
2017-08-15T23:39:41.028Z,12.40
2017-08-15T23:42:08.565Z,12.63
2017-08-15T23:44:36.137Z,12.03
2017-08-15T23:47:03.680Z,14.50
2017-08-15T23:49:31.226Z,14.93
2017-08-15T23:51:58.820Z,15.67
2017-08-15T23:54:26.378Z,16.43
2017-08-15T23:56:53.925Z,15.87
2017-08-15T23:59:21.556Z,15.37
